Time;durP1;ratioP1;P1;durP2;ratioP2;P2;SDS_P1;SDS_P2;PMS_P1;PMS_P2;Temp;Humidity;BMP_temperature;BMP_pressure;BME280_temperature;BME280_humidity;BME280_pressure;Samples;Min_cycle;Max_cycle;Signal;HPM_P1;HPM_P2
2021/01/23 00:00:25;;;;;;;23.45;16.02;;;;;;;3.19;70.04;98619.16;345383;107;2357021;-74
2021/01/23 00:01:30;;;;;;;23.43;14.99;;;;;;;3.20;70.05;98607.48;339528;111;1963859;-72
2021/01/23 00:02:36;;;;;;;20.39;14.87;;;;;;;3.20;69.93;98625.31;370942;107;1963965;-72
2021/01/23 00:03:41;;;;;;;23.24;15.18;;;;;;;3.09;70.29;98618.60;371308;106;1962950;-72
2021/01/23 00:04:46;;;;;;;22.39;15.15;;;;;;;3.05;70.25;98626.16;371327;107;1963916;-72
2021/01/23 00:05:51;;;;;;;21.71;14.71;;;;;;;2.98;70.38;98624.40;369017;107;1962058;-72
2021/01/23 00:06:59;;;;;;;21.04;13.56;;;;;;;2.89;70.54;98628.17;345647;107;2924034;-72
2021/01/23 00:08:04;;;;;;;21.52;14.04;;;;;;;2.82;70.78;98631.55;342679;107;1961991;-72
2021/01/23 00:09:10;;;;;;;24.93;15.38;;;;;;;2.81;70.80;98629.91;369254;107;1960786;-72
2021/01/23 00:10:17;;;;;;;23.20;15.62;;;;;;;2.78;70.95;98627.60;370233;109;1960816;-72
2021/01/23 00:11:23;;;;;;;24.91;15.70;;;;;;;2.81;70.89;98634.41;327021;107;2880871;-73
2021/01/23 00:12:29;;;;;;;22.59;15.34;;;;;;;2.78;71.04;98626.75;341937;107;1961964;-72
2021/01/23 00:13:34;;;;;;;23.03;14.79;;;;;;;2.79;71.07;98628.42;369298;109;1962001;-73
2021/01/23 00:14:39;;;;;;;21.57;14.66;;;;;;;2.70;71.10;98614.35;369574;107;1963963;-72
2021/01/23 00:15:44;;;;;;;22.07;15.45;;;;;;;2.79;71.05;98621.25;368125;107;1961932;-72
2021/01/23 00:16:50;;;;;;;25.36;15.06;;;;;;;2.77;71.13;98627.77;369184;107;1965010;-73
2021/01/23 00:17:56;;;;;;;24.48;15.41;;;;;;;2.78;71.12;98626.75;368491;107;1960872;-72
2021/01/23 00:19:02;;;;;;;23.28;15.02;;;;;;;2.78;71.04;98624.08;340972;107;2443019;-72
2021/01/23 00:20:09;;;;;;;21.48;14.33;;;;;;;2.78;71.04;98624.94;356712;107;1962912;-72
2021/01/23 00:21:15;;;;;;;22.74;15.49;;;;;;;2.77;71.15;98627.77;369239;107;1963976;-72
2021/01/23 00:22:21;;;;;;;24.76;14.65;;;;;;;2.74;71.16;98625.47;370428;107;1962989;-73
2021/01/23 00:23:27;;;;;;;23.55;15.13;;;;;;;2.71;71.19;98625.84;325158;107;2883923;-73
2021/01/23 00:24:32;;;;;;;24.89;15.19;;;;;;;2.70;71.28;98624.16;342606;107;1960865;-72
2021/01/23 00:25:37;;;;;;;20.56;12.99;;;;;;;2.71;71.33;98623.17;351323;107;1960954;-73
2021/01/23 00:26:44;;;;;;;19.96;13.54;;;;;;;2.72;71.22;98622.97;370049;107;1961934;-72
2021/01/23 00:27:50;;;;;;;23.18;13.63;;;;;;;2.73;71.12;98627.31;370881;107;1961895;-73
2021/01/23 00:28:56;;;;;;;21.08;14.38;;;;;;;2.80;71.05;98635.41;318949;107;2863056;-73
2021/01/23 00:30:02;;;;;;;20.88;15.18;;;;;;;2.77;70.99;98628.59;338884;106;1961014;-72
2021/01/23 00:31:08;;;;;;;21.96;13.89;;;;;;;2.75;71.08;98625.30;357190;111;1961023;-72
2021/01/23 00:32:13;;;;;;;21.91;13.73;;;;;;;2.79;70.98;98631.92;369543;107;1960743;-72
2021/01/23 00:33:19;;;;;;;22.48;14.27;;;;;;;2.77;70.92;98628.59;370002;107;1960988;-71
2021/01/23 00:34:25;;;;;;;21.92;13.83;;;;;;;2.74;71.01;98626.30;336710;107;2530930;-71
2021/01/23 00:35:31;;;;;;;20.44;13.38;;;;;;;2.78;71.00;98627.60;347343;107;1962037;-72
2021/01/23 00:36:38;;;;;;;20.56;13.58;;;;;;;2.79;70.92;98626.58;369347;107;1961975;-72
2021/01/23 00:37:47;;;;;;;19.74;14.17;;;;;;;2.75;70.96;98624.45;368799;107;1961961;-72
2021/01/23 00:38:51;;;;;;;18.76;12.67;;;;;;;2.75;71.02;98627.97;366961;107;1963038;-72
2021/01/23 00:39:56;;;;;;;21.24;14.05;;;;;;;2.78;71.02;98629.42;366840;107;1962918;-72
2021/01/23 00:41:02;;;;;;;19.03;13.06;;;;;;;2.77;70.97;98633.11;367854;107;1961974;-72
2021/01/23 00:42:08;;;;;;;20.13;13.26;;;;;;;2.75;71.08;98622.64;367806;107;1962978;-72
2021/01/23 00:43:14;;;;;;;22.22;12.84;;;;;;;2.77;70.92;98631.27;350351;106;2958937;-72
2021/01/23 00:44:19;;;;;;;20.59;13.21;;;;;;;2.78;70.98;98621.42;334243;107;1963969;-72
2021/01/23 00:45:25;;;;;;;20.07;12.90;;;;;;;2.77;70.97;98622.44;344372;107;1962003;-73
2021/01/23 00:46:32;;;;;;;20.18;13.63;;;;;;;2.77;71.02;98615.27;365993;107;1961986;-73
2021/01/23 00:47:38;;;;;;;20.61;14.16;;;;;;;2.74;71.08;98617.47;368975;107;1964992;-71
2021/01/23 00:48:44;;;;;;;19.96;12.73;;;;;;;2.72;71.14;98612.31;307875;109;2186208;-72
2021/01/23 00:49:49;;;;;;;19.92;13.32;;;;;;;2.74;71.13;98609.47;336080;107;1962996;-72
2021/01/23 00:50:54;;;;;;;21.86;12.36;;;;;;;2.75;71.14;98611.12;366359;107;1962065;-71
2021/01/23 00:52:00;;;;;;;20.81;13.06;;;;;;;2.77;71.06;98606.44;368157;107;1962011;-72
2021/01/23 00:53:06;;;;;;;21.24;14.31;;;;;;;2.76;71.08;98607.46;365485;107;1960835;-71
2021/01/23 00:54:14;;;;;;;20.10;13.29;;;;;;;2.79;70.95;98599.91;366596;107;1961996;-72
2021/01/23 00:55:22;;;;;;;17.19;12.56;;;;;;;2.79;70.97;98602.58;367185;107;1961918;-72
2021/01/23 00:56:29;;;;;;;20.29;11.13;;;;;;;2.79;70.94;98605.25;368231;107;1962046;-72
2021/01/23 00:57:35;;;;;;;20.27;12.73;;;;;;;2.75;71.11;98598.64;367754;107;1963979;-72
2021/01/23 00:58:41;;;;;;;21.28;13.32;;;;;;;2.74;71.17;98596.14;368032;107;1962012;-73
2021/01/23 00:59:47;;;;;;;19.62;12.24;;;;;;;2.77;71.00;98596.59;321366;107;2813975;-72
2021/01/23 01:00:53;;;;;;;20.16;12.05;;;;;;;2.77;71.09;98599.27;355002;107;1960878;-72
2021/01/23 01:01:58;;;;;;;18.84;13.70;;;;;;;2.76;71.17;98602.12;368119;107;1962050;-72
2021/01/23 01:03:06;;;;;;;19.49;12.04;;;;;;;2.74;71.39;98593.48;368185;106;1961944;-72
2021/01/23 01:04:13;;;;;;;19.16;12.35;;;;;;;2.79;71.13;98601.76;369030;106;1961987;-72
2021/01/23 01:05:33;;;;;;;24.39;12.67;;;;;;;2.80;71.02;98598.89;368640;107;1962924;-73
2021/01/23 01:06:39;;;;;;;23.41;13.58;;;;;;;2.78;71.15;98616.94;360670;109;1961940;-73
2021/01/23 01:07:44;;;;;;;19.29;12.82;;;;;;;2.81;70.96;98613.08;359149;110;1962028;-71
2021/01/23 01:08:51;;;;;;;19.67;12.93;;;;;;;2.82;70.93;98612.88;352500;113;1961972;-73
2021/01/23 01:09:56;;;;;;;21.03;13.03;;;;;;;2.81;70.89;98613.08;321506;115;2482952;-73
2021/01/23 01:11:02;;;;;;;17.82;12.07;;;;;;;2.80;70.98;98614.07;323107;113;1961958;-73
2021/01/23 01:12:08;;;;;;;18.77;11.92;;;;;;;2.82;70.94;98612.06;351119;115;1961945;-73
2021/01/23 01:13:14;;;;;;;19.79;12.08;;;;;;;2.82;70.84;98612.06;351977;112;1961971;-73
2021/01/23 01:14:20;;;;;;;20.57;13.11;;;;;;;2.84;70.73;98616.20;349888;115;1962026;-73
2021/01/23 01:15:26;;;;;;;20.13;12.88;;;;;;;2.74;70.77;98604.14;307587;115;2758002;-73
2021/01/23 01:16:33;;;;;;;19.96;12.77;;;;;;;2.83;70.68;98614.55;352458;115;1961901;-73
2021/01/23 01:17:38;;;;;;;22.20;14.02;;;;;;;2.83;70.61;98619.89;355827;106;1960876;-73
2021/01/23 01:18:45;;;;;;;20.59;13.13;;;;;;;2.82;70.71;98625.39;299237;110;2233818;-73
2021/01/23 01:19:51;;;;;;;22.14;13.72;;;;;;;2.83;70.66;98619.89;343999;111;1961971;-72
2021/01/23 01:20:56;;;;;;;20.88;13.02;;;;;;;2.83;70.70;98627.03;361395;109;1963962;-72
2021/01/23 01:22:02;;;;;;;19.68;13.30;;;;;;;2.81;70.74;98618.41;357824;111;1961873;-72
2021/01/23 01:23:09;;;;;;;19.98;12.77;;;;;;;2.82;70.68;98623.55;361811;109;1962878;-72
2021/01/23 01:24:14;;;;;;;22.94;14.59;;;;;;;2.82;70.64;98623.55;336591;111;2311880;-72
2021/01/23 01:25:20;;;;;;;20.26;13.32;;;;;;;2.83;70.63;98624.38;327398;113;1961945;-73
2021/01/23 01:26:25;;;;;;;20.91;13.76;;;;;;;2.80;70.68;98622.89;364574;109;1961789;-71
2021/01/23 01:27:31;;;;;;;18.44;12.69;;;;;;;2.82;70.75;98620.06;366117;108;1962041;-71
2021/01/23 01:28:36;;;;;;;21.39;13.29;;;;;;;2.82;70.66;98628.87;362369;109;1962133;-72
2021/01/23 01:29:43;;;;;;;22.12;13.66;;;;;;;2.84;70.68;98626.05;361665;109;1962013;-71
2021/01/23 01:30:49;;;;;;;20.07;14.27;;;;;;;2.84;70.53;98621.53;337779;109;2439016;-71
2021/01/23 01:31:54;;;;;;;21.84;13.70;;;;;;;2.85;70.55;98615.17;347197;111;1961978;-71
2021/01/23 01:33:00;;;;;;;22.44;14.23;;;;;;;2.84;70.52;98618.87;359741;109;1961963;-71
2021/01/23 01:34:05;;;;;;;21.07;13.88;;;;;;;2.84;70.62;98618.05;365616;109;1961993;-71
2021/01/23 01:35:10;;;;;;;20.73;13.34;;;;;;;2.89;70.48;98612.17;365152;108;1962021;-70
2021/01/23 01:36:17;;;;;;;21.14;13.79;;;;;;;2.91;70.34;98610.98;365823;107;1961998;-71
2021/01/23 01:37:23;;;;;;;20.17;12.89;;;;;;;2.89;70.40;98607.66;331421;109;2522957;-72
2021/01/23 01:38:28;;;;;;;18.33;12.58;;;;;;;2.94;70.22;98607.09;333720;109;1962023;-71
2021/01/23 01:39:33;;;;;;;20.34;13.21;;;;;;;2.97;70.01;98601.41;350797;109;1961931;-71
2021/01/23 01:40:41;;;;;;;20.89;13.34;;;;;;;2.92;70.21;98601.95;361186;109;1963993;-71
2021/01/23 01:41:46;;;;;;;20.86;13.25;;;;;;;2.89;70.42;98606.84;364348;109;1961945;-71
2021/01/23 01:42:52;;;;;;;21.12;12.86;;;;;;;2.90;70.39;98600.48;315596;108;2850923;-71
2021/01/23 01:43:57;;;;;;;19.71;13.03;;;;;;;2.93;70.32;98605.45;333370;111;1962011;-71
2021/01/23 01:45:05;;;;;;;18.57;12.95;;;;;;;2.92;70.47;98598.47;363698;109;1961916;-72
2021/01/23 01:46:13;;;;;;;18.97;12.42;;;;;;;2.94;70.30;98602.61;317900;108;2230955;-71
2021/01/23 01:47:19;;;;;;;20.14;13.47;;;;;;;2.94;70.34;98589.27;366438;109;1965006;-71
2021/01/23 01:48:26;;;;;;;17.94;11.57;;;;;;;2.95;70.38;98596.25;363842;109;1963976;-71
2021/01/23 01:49:32;;;;;;;19.56;12.51;;;;;;;2.92;70.44;98601.95;317071;109;2770004;-72
2021/01/23 01:50:39;;;;;;;18.64;12.34;;;;;;;2.93;70.48;98597.44;359169;111;1962984;-72
2021/01/23 01:51:44;;;;;;;19.04;12.34;;;;;;;2.94;70.42;98602.61;361728;109;1962008;-71
2021/01/23 01:52:51;;;;;;;19.12;12.47;;;;;;;2.98;70.16;98603.06;362394;109;1961965;-71
2021/01/23 01:53:57;;;;;;;18.51;11.62;;;;;;;2.97;70.25;98609.42;342402;109;1961973;-69
2021/01/23 01:55:03;;;;;;;17.59;12.69;;;;;;;2.97;70.16;98609.42;357748;109;1962909;-70
2021/01/23 01:56:10;;;;;;;18.16;12.19;;;;;;;2.94;70.25;98615.94;364764;109;1962057;-71
2021/01/23 01:57:21;;;;;;;17.73;12.22;;;;;;;2.95;70.18;98614.92;324454;109;2657751;-71
2021/01/23 01:58:26;;;;;;;17.28;11.52;;;;;;;2.94;70.18;98615.09;346032;107;1960799;-72
2021/01/23 01:59:31;;;;;;;17.80;11.79;;;;;;;2.96;70.03;98613.90;365072;109;1960903;-71
2021/01/23 02:00:37;;;;;;;19.36;12.36;;;;;;;2.96;70.03;98621.08;363234;109;1960779;-72
2021/01/23 02:01:45;;;;;;;22.35;13.09;;;;;;;2.95;69.99;98614.92;350660;106;2947904;-72
2021/01/23 02:03:06;;;;;;;21.76;14.26;;;;;;;2.97;69.99;98609.42;351097;109;1960831;-71
2021/01/23 02:04:40;;;;;;;25.93;16.57;;;;;;;2.96;69.94;98611.23;363812;106;1960723;-71
2021/01/23 02:06:01;;;;;;;28.43;17.94;;;;;;;2.94;69.83;98607.94;357773;111;1960841;-71
2021/01/23 02:07:32;;;;;;;23.13;15.42;;;;;;;2.86;69.72;98608.03;355502;111;1960886;-71
2021/01/23 02:08:56;;;;;;;28.91;17.28;;;;;;;2.73;70.06;98613.16;339021;110;2234933;-70
2021/01/23 02:10:18;;;;;;;28.69;16.26;;;;;;;2.56;70.28;98609.80;330037;107;2595959;-71
2021/01/23 02:11:57;;;;;;;24.13;15.21;;;;;;;2.39;70.68;98617.12;336884;115;1961987;-72
2021/01/23 02:13:25;;;;;;;20.96;12.71;;;;;;;2.28;71.04;98610.38;369583;107;1963031;-71
2021/01/23 02:14:37;;;;;;;21.45;12.55;;;;;;;2.29;71.03;98609.36;355284;108;1961991;-71
2021/01/23 02:15:46;;;;;;;22.23;11.42;;;;;;;2.33;71.47;98602.68;352465;112;1962004;-70
2021/01/23 02:16:54;;;;;;;20.94;12.02;;;;;;;2.41;71.25;98601.78;324385;107;2054451;-71
2021/01/23 02:18:04;;;;;;;19.34;11.61;;;;;;;2.44;71.27;98598.76;361472;109;1962954;-71
2021/01/23 02:19:32;;;;;;;19.64;12.51;;;;;;;2.46;71.41;98598.56;353952;113;1961976;-71
2021/01/23 02:21:12;;;;;;;19.87;10.73;;;;;;;2.46;71.42;98604.74;354234;114;1962092;-72
2021/01/23 02:22:24;;;;;;;17.32;10.65;;;;;;;2.49;71.48;98600.86;354383;112;1961949;-71
2021/01/23 02:23:37;;;;;;;16.78;11.11;;;;;;;2.60;71.18;98600.45;354415;112;1962037;-71
2021/01/23 02:24:46;;;;;;;16.26;10.26;;;;;;;2.62;71.17;98601.10;347471;115;1961970;-71
2021/01/23 02:26:18;;;;;;;19.61;11.48;;;;;;;2.66;71.02;98613.05;353958;112;1961937;-72
2021/01/23 02:27:45;;;;;;;14.44;9.91;;;;;;;2.66;71.01;98606.89;338343;112;2247061;-71
2021/01/23 02:29:09;;;;;;;18.54;11.84;;;;;;;2.64;71.18;98620.39;353720;112;1960948;-71
2021/01/23 02:30:19;;;;;;;20.86;11.46;;;;;;;2.66;71.12;98618.38;353236;112;1960981;-72
2021/01/23 02:31:27;;;;;;;22.26;14.29;;;;;;;2.70;71.10;98617.02;322690;112;1961947;-71
2021/01/23 02:32:37;;;;;;;25.96;15.56;;;;;;;2.74;70.97;98625.47;354461;112;1961954;-71
2021/01/23 02:33:47;;;;;;;24.24;16.02;;;;;;;2.78;70.83;98616.94;309641;112;2806020;-72
2021/01/23 02:35:00;;;;;;;28.26;16.13;;;;;;;2.79;70.68;98618.58;326333;112;2487949;-72
2021/01/23 02:36:08;;;;;;;27.18;15.74;;;;;;;2.80;70.62;98624.73;354464;112;1964891;-72
2021/01/23 02:37:14;;;;;;;26.66;15.35;;;;;;;2.80;70.50;98619.41;320593;112;1962853;-71
2021/01/23 02:38:21;;;;;;;25.96;15.04;;;;;;;2.82;70.38;98617.39;354599;112;1961992;-71
2021/01/23 02:39:29;;;;;;;25.23;14.31;;;;;;;2.81;70.29;98610.41;355581;112;1962005;-71
2021/01/23 02:40:43;;;;;;;26.32;15.56;;;;;;;2.80;70.35;98620.23;355064;112;1960889;-70
2021/01/23 02:41:51;;;;;;;23.71;15.06;;;;;;;2.79;70.34;98612.42;353997;112;1964343;-71
2021/01/23 02:42:56;;;;;;;24.13;14.10;;;;;;;2.78;70.36;98624.08;354820;112;1962109;-70
2021/01/23 02:44:02;;;;;;;23.53;13.46;;;;;;;2.77;70.43;98614.44;312344;112;2774815;-71
2021/01/23 02:45:10;;;;;;;23.06;14.40;;;;;;;2.74;70.50;98620.14;354658;112;1961939;-70
2021/01/23 02:46:27;;;;;;;21.08;12.72;;;;;;;2.77;70.39;98623.27;330913;112;2400076;-71
2021/01/23 02:47:33;;;;;;;22.66;13.84;;;;;;;2.75;70.47;98630.64;361271;108;1961827;-71
2021/01/23 02:48:39;;;;;;;18.81;12.67;;;;;;;2.79;70.19;98633.76;366444;108;1962003;-70
2021/01/23 02:49:45;;;;;;;23.26;13.64;;;;;;;2.78;70.24;98632.94;367920;108;1963931;-71
2021/01/23 02:50:55;;;;;;;23.27;14.02;;;;;;;2.79;70.16;98634.58;342308;109;2372084;-72
2021/01/23 02:52:08;;;;;;;23.76;14.62;;;;;;;2.77;70.12;98628.59;321526;108;2770979;-71
2021/01/23 02:53:21;;;;;;;22.51;13.50;;;;;;;2.76;70.20;98626.95;365459;108;1961934;-72
2021/01/23 02:54:36;;;;;;;21.19;13.20;;;;;;;2.74;70.17;98623.63;366298;108;1961982;-72
2021/01/23 02:55:46;;;;;;;19.71;12.52;;;;;;;2.76;70.20;98621.62;367328;108;1965040;-72
2021/01/23 02:56:54;;;;;;;18.82;12.08;;;;;;;2.58;70.32;98594.45;348323;108;1962567;-71
2021/01/23 02:58:02;;;;;;;19.21;12.33;;;;;;;2.77;70.21;98617.11;367331;108;1962011;-71
2021/01/23 02:59:11;;;;;;;17.90;11.05;;;;;;;2.79;70.12;98618.58;368697;108;1964083;-72
2021/01/23 03:00:19;;;;;;;19.44;11.87;;;;;;;2.77;70.19;98620.59;366777;108;1962008;-72
2021/01/23 03:01:26;;;;;;;21.37;14.24;;;;;;;2.80;70.10;98619.41;336965;108;2503907;-71
2021/01/23 03:02:35;;;;;;;22.49;14.16;;;;;;;2.83;69.97;98616.37;368556;108;1961976;-72
2021/01/23 03:03:43;;;;;;;23.94;16.31;;;;;;;2.82;70.00;98628.06;346546;108;1961983;-72
2021/01/23 03:04:50;;;;;;;23.07;14.81;;;;;;;2.82;69.92;98625.39;368241;108;1961985;-73
2021/01/23 03:05:55;;;;;;;24.56;15.47;;;;;;;2.78;69.93;98635.61;369014;108;1961960;-72
2021/01/23 03:07:01;;;;;;;24.29;15.90;;;;;;;2.69;70.00;98638.52;368073;108;1961986;-71
2021/01/23 03:08:14;;;;;;;25.96;16.16;;;;;;;2.60;70.07;98640.44;367073;108;1962078;-72
2021/01/23 03:09:21;;;;;;;31.22;16.93;;;;;;;2.49;70.24;98646.17;368002;108;1961023;-72
2021/01/23 03:10:41;;;;;;;22.61;14.96;;;;;;;2.38;70.48;98644.77;365250;108;1963967;-72
2021/01/23 03:11:47;;;;;;;23.33;14.40;;;;;;;2.27;70.73;98642.52;366941;108;1961961;-72
2021/01/23 03:12:52;;;;;;;22.53;14.53;;;;;;;2.24;71.00;98645.55;331187;108;1961897;-72
2021/01/23 03:13:58;;;;;;;19.91;13.73;;;;;;;2.24;71.20;98640.22;362599;108;1961982;-72
2021/01/23 03:15:05;;;;;;;21.41;14.29;;;;;;;2.27;71.17;98635.35;368138;108;1960958;-72
2021/01/23 03:16:20;;;;;;;22.38;14.08;;;;;;;2.30;71.15;98629.69;329597;108;2650905;-72
2021/01/23 03:17:27;;;;;;;22.26;15.03;;;;;;;2.33;71.17;98633.80;327916;107;2727973;-72
2021/01/23 03:18:33;;;;;;;20.69;13.11;;;;;;;2.36;71.22;98639.63;357946;106;1960668;-71
2021/01/23 03:19:38;;;;;;;23.43;13.45;;;;;;;2.40;71.10;98635.58;351549;112;1961723;-73
2021/01/23 03:20:45;;;;;;;20.63;13.01;;;;;;;2.39;71.12;98633.94;351325;113;1960918;-72
2021/01/23 03:21:52;;;;;;;20.52;13.54;;;;;;;2.43;71.18;98637.06;316748;110;2753920;-72
2021/01/23 03:22:58;;;;;;;20.38;13.28;;;;;;;2.48;71.08;98633.86;359864;110;1962031;-71
2021/01/23 03:24:04;;;;;;;23.71;14.81;;;;;;;2.48;71.09;98631.20;360818;110;1961977;-71
2021/01/23 03:25:11;;;;;;;21.25;14.31;;;;;;;2.49;71.14;98631.03;316900;110;2768944;-71
2021/01/23 03:26:16;;;;;;;21.17;14.30;;;;;;;2.51;71.07;98631.66;360091;110;1961992;-72
2021/01/23 03:27:21;;;;;;;24.86;14.98;;;;;;;2.51;70.96;98628.99;360241;110;1961892;-72
2021/01/23 03:28:27;;;;;;;20.83;13.01;;;;;;;2.51;71.01;98625.50;359344;110;1960835;-72
2021/01/23 03:29:32;;;;;;;25.88;16.09;;;;;;;2.52;70.98;98619.19;359426;110;1963986;-72
2021/01/23 03:30:41;;;;;;;21.69;14.58;;;;;;;2.52;71.00;98627.18;341083;110;2253981;-71
2021/01/23 03:31:48;;;;;;;21.81;13.99;;;;;;;2.52;71.07;98622.67;358985;110;1960795;-73
2021/01/23 03:32:55;;;;;;;22.14;13.82;;;;;;;2.52;71.08;98633.34;352403;110;2959073;-71
2021/01/23 03:34:02;;;;;;;18.43;12.86;;;;;;;2.55;70.88;98622.30;359215;110;1963854;-71
2021/01/23 03:35:09;;;;;;;20.06;14.23;;;;;;;2.56;70.80;98625.80;359418;110;1962016;-72
2021/01/23 03:36:16;;;;;;;21.25;13.97;;;;;;;2.55;70.85;98629.48;358850;110;1962062;-71
2021/01/23 03:37:24;;;;;;;21.03;14.26;;;;;;;2.53;70.83;98624.31;358310;110;1962024;-71
2021/01/23 03:38:29;;;;;;;24.13;15.21;;;;;;;2.53;70.77;98620.83;315283;110;2067737;-72
2021/01/23 03:39:34;;;;;;;22.28;14.85;;;;;;;2.53;70.81;98623.50;332986;110;1963321;-72
2021/01/23 03:40:40;;;;;;;23.21;14.72;;;;;;;2.52;70.77;98620.01;360215;110;1962090;-72
2021/01/23 03:41:59;;;;;;;21.89;13.89;;;;;;;2.52;70.72;98617.34;358724;110;1961872;-71
2021/01/23 03:43:04;;;;;;;20.40;14.24;;;;;;;2.51;70.85;98625.50;365244;111;1962053;-72
2021/01/23 03:44:10;;;;;;;25.78;15.88;;;;;;;2.49;70.75;98623.03;358012;112;1962025;-72
2021/01/23 03:45:15;;;;;;;25.02;15.93;;;;;;;2.50;70.74;98618.53;358575;111;1961922;-72
2021/01/23 03:46:23;;;;;;;24.71;16.57;;;;;;;2.48;70.85;98620.53;296285;112;2217032;-73
2021/01/23 03:47:28;;;;;;;28.14;17.47;;;;;;;2.44;70.85;98621.92;357738;112;1963983;-71
2021/01/23 03:48:34;;;;;;;26.34;16.94;;;;;;;2.43;70.89;98626.40;356913;112;1962027;-71
2021/01/23 03:49:50;;;;;;;28.15;18.34;;;;;;;2.40;70.99;98616.92;360158;113;1962076;-71
2021/01/23 03:50:56;;;;;;;26.13;17.57;;;;;;;2.42;70.84;98628.23;366294;108;1961948;-72
2021/01/23 03:52:03;;;;;;;27.71;17.25;;;;;;;2.39;70.86;98627.78;332620;108;2562045;-71
2021/01/23 03:53:08;;;;;;;27.42;17.31;;;;;;;2.35;71.10;98615.80;366005;108;1963972;-71
2021/01/23 03:54:13;;;;;;;26.39;16.61;;;;;;;2.34;70.94;98614.98;363284;109;1961895;-71
2021/01/23 03:55:19;;;;;;;21.77;14.55;;;;;;;2.33;71.05;98610.67;361653;109;1963919;-71
2021/01/23 03:56:25;;;;;;;20.68;13.37;;;;;;;2.37;70.93;98608.47;364737;111;1961990;-71
2021/01/23 03:57:31;;;;;;;22.38;14.17;;;;;;;2.35;71.02;98611.30;324337;109;2692074;-72
2021/01/23 03:58:37;;;;;;;19.99;12.53;;;;;;;2.34;70.90;98606.98;356973;109;1962988;-71
2021/01/23 03:59:42;;;;;;;20.71;12.74;;;;;;;2.37;70.95;98613.80;363856;109;1962909;-71
2021/01/23 04:00:48;;;;;;;20.37;13.50;;;;;;;2.34;70.85;98619.49;364650;109;1961915;-71
2021/01/23 04:01:53;;;;;;;18.83;12.63;;;;;;;2.30;70.95;98612.84;365346;109;1962899;-71
2021/01/23 04:02:59;;;;;;;22.39;13.19;;;;;;;2.27;71.15;98615.88;364052;109;1963465;-72
2021/01/23 04:04:05;;;;;;;20.66;13.07;;;;;;;2.27;71.05;98615.88;323313;109;2700991;-73
2021/01/23 04:05:11;;;;;;;18.96;12.98;;;;;;;2.25;71.10;98628.54;335091;109;1962012;-72
2021/01/23 04:06:17;;;;;;;17.55;11.80;;;;;;;2.23;71.18;98618.08;363928;109;1962927;-72
2021/01/23 04:07:24;;;;;;;20.02;12.21;;;;;;;2.26;71.13;98627.55;362862;109;1961989;-72
2021/01/23 04:08:32;;;;;;;18.19;11.16;;;;;;;2.22;71.25;98629.72;336587;109;2439972;-71
2021/01/23 04:09:37;;;;;;;18.31;11.24;;;;;;;2.20;71.32;98631.76;363064;109;1961974;-72
2021/01/23 04:10:43;;;;;;;18.04;11.43;;;;;;;2.20;71.33;98629.09;363680;109;1962003;-72
2021/01/23 04:11:49;;;;;;;17.42;11.28;;;;;;;2.24;71.26;98626.89;313987;109;2856919;-73
2021/01/23 04:12:55;;;;;;;17.76;11.86;;;;;;;2.21;71.26;98633.41;356215;109;1961972;-72
2021/01/23 04:14:00;;;;;;;17.61;11.51;;;;;;;2.22;71.35;98629.72;363786;109;1961951;-72
2021/01/23 04:15:13;;;;;;;21.24;12.91;;;;;;;2.24;71.25;98634.89;361613;109;1961962;-72
2021/01/23 04:16:20;;;;;;;19.05;12.65;;;;;;;2.22;71.28;98629.72;358616;111;1963853;-72
2021/01/23 04:17:26;;;;;;;19.21;13.16;;;;;;;2.23;71.26;98634.06;361151;109;1963001;-71
2021/01/23 04:18:36;;;;;;;19.26;13.11;;;;;;;2.26;71.12;98633.70;360570;111;1961994;-73
2021/01/23 04:19:42;;;;;;;22.54;14.61;;;;;;;2.25;71.03;98632.06;355126;113;1961978;-72
2021/01/23 04:20:49;;;;;;;20.60;13.42;;;;;;;2.22;71.13;98629.72;331761;111;2423973;-73
2021/01/23 04:21:55;;;;;;;20.83;13.82;;;;;;;2.18;71.28;98631.10;355064;111;1964986;-72
2021/01/23 04:23:00;;;;;;;20.23;14.12;;;;;;;2.19;71.31;98622.91;357603;111;1962071;-72
2021/01/23 04:24:07;;;;;;;22.36;14.51;;;;;;;2.22;71.21;98626.23;359519;113;1961959;-72
2021/01/23 04:25:13;;;;;;;23.39;14.29;;;;;;;2.20;71.30;98623.77;318276;111;2019196;-72
2021/01/23 04:26:21;;;;;;;20.51;12.98;;;;;;;2.26;71.12;98615.05;358776;113;1962077;-72
2021/01/23 04:27:27;;;;;;;21.51;14.86;;;;;;;2.24;71.12;98617.06;310093;113;2806906;-72
2021/01/23 04:28:33;;;;;;;20.31;12.77;;;;;;;2.26;70.93;98619.56;353048;111;1961945;-71
2021/01/23 04:29:38;;;;;;;19.41;12.67;;;;;;;2.25;71.12;98632.06;355539;113;1961976;-71
2021/01/23 04:30:45;;;;;;;20.47;14.08;;;;;;;2.23;71.12;98628.73;358021;113;1961966;-72
2021/01/23 04:31:50;;;;;;;18.42;12.10;;;;;;;2.20;71.23;98626.44;357974;113;1961989;-72
2021/01/23 04:32:56;;;;;;;18.49;12.49;;;;;;;2.20;71.28;98618.44;337050;111;2330906;-71
2021/01/23 04:34:03;;;;;;;18.95;12.60;;;;;;;2.22;71.11;98615.58;346399;113;1964912;-71
2021/01/23 04:35:10;;;;;;;20.90;12.76;;;;;;;2.21;71.10;98625.41;357853;111;1961810;-72
2021/01/23 04:36:16;;;;;;;19.46;13.13;;;;;;;2.18;71.29;98628.44;330466;113;2436959;-72
2021/01/23 04:37:21;;;;;;;21.28;12.99;;;;;;;2.16;71.26;98627.78;334238;111;1961898;-72
2021/01/23 04:38:27;;;;;;;19.46;12.01;;;;;;;2.13;71.42;98626.30;355678;111;1961996;-72
2021/01/23 04:39:32;;;;;;;20.66;13.09;;;;;;;2.14;71.37;98632.45;350779;113;1961935;-72
2021/01/23 04:40:38;;;;;;;19.99;12.96;;;;;;;2.13;71.41;98638.80;357076;111;1962083;-72
2021/01/23 04:41:48;;;;;;;20.98;13.42;;;;;;;2.12;71.38;98632.64;356915;111;1961963;-70
2021/01/23 04:42:55;;;;;;;19.27;12.93;;;;;;;2.11;71.40;98624.81;349655;115;1962947;-72
2021/01/23 04:44:00;;;;;;;19.84;12.67;;;;;;;2.09;71.48;98624.16;326286;106;1961999;-72
2021/01/23 04:45:07;;;;;;;19.48;13.02;;;;;;;2.10;71.48;98625.84;356485;109;1964741;-72
2021/01/23 04:46:15;;;;;;;20.52;14.49;;;;;;;2.10;71.50;98628.50;367657;106;1962073;-72
2021/01/23 04:47:21;;;;;;;20.03;12.95;;;;;;;2.11;71.44;98625.64;353752;112;1960859;-72
2021/01/23 04:48:26;;;;;;;19.79;13.76;;;;;;;2.12;71.36;98626.49;360341;110;1962025;-73
2021/01/23 04:49:34;;;;;;;19.41;12.87;;;;;;;2.09;71.42;98626.82;361307;108;1962948;-72
2021/01/23 04:50:39;;;;;;;21.86;13.51;;;;;;;2.09;71.44;98625.02;344662;110;1963904;-72
2021/01/23 04:51:45;;;;;;;20.14;12.99;;;;;;;2.11;71.32;98630.14;359310;111;1961861;-72
2021/01/23 04:52:50;;;;;;;22.12;13.07;;;;;;;2.11;71.31;98625.64;357136;110;1962008;-72
2021/01/23 04:53:56;;;;;;;19.83;14.06;;;;;;;2.10;71.34;98623.17;356644;110;1962047;-72
2021/01/23 04:55:02;;;;;;;18.59;12.39;;;;;;;2.08;71.40;98623.33;356466;111;1961891;-72
2021/01/23 04:56:08;;;;;;;19.88;13.33;;;;;;;2.03;71.65;98632.87;327022;107;2907035;-72
2021/01/23 04:57:15;;;;;;;20.48;13.68;;;;;;;2.04;71.62;98630.04;367640;108;1961912;-73
2021/01/23 04:58:20;;;;;;;22.86;14.61;;;;;;;2.02;71.69;98629.37;367755;105;1962168;-72
2021/01/23 04:59:26;;;;;;;21.28;13.23;;;;;;;2.05;71.68;98628.20;363916;110;1963918;-72
2021/01/23 05:00:31;;;;;;;22.81;13.76;;;;;;;2.06;71.59;98630.67;361140;109;1961924;-72
2021/01/23 05:01:37;;;;;;;23.43;14.14;;;;;;;2.09;71.44;98632.15;322605;110;2717997;-72
2021/01/23 05:02:43;;;;;;;22.13;14.24;;;;;;;2.05;71.46;98630.86;349085;110;1961618;-71
2021/01/23 05:04:00;;;;;;;22.77;14.00;;;;;;;2.06;71.49;98632.51;360448;110;1963923;-72
2021/01/23 05:05:07;;;;;;;24.46;14.67;;;;;;;2.06;71.48;98635.17;362547;110;1961979;-72
2021/01/23 05:06:13;;;;;;;24.32;16.14;;;;;;;2.06;71.36;98637.84;361292;109;1962031;-73
2021/01/23 05:07:34;;;;;;;25.77;15.24;;;;;;;2.04;71.36;98630.04;359963;110;1961954;-71
2021/01/23 05:08:39;;;;;;;23.54;15.09;;;;;;;2.05;71.36;98630.86;360473;110;1963908;-71